Accueil
METAR-TAF:

METAR-TAF

Aéroports :

Aérodrome de Windhoek-Eros

Windhoek, Namibie

latitude: 22-36-44S, longitude: 017-04-50E, altitude: 1699 m

Observation

Le bulletin a été fait il y a 1 heure et 6 minutes, à 10:00 UTC
Vent 6 kt de est/nord-est
Température 20°C
Humidité 17%
Pression 1031 hPa
Visibilité 10 km ou plus
pas de nuages en-dessous de 1500 mètres et pas de cumulonimbus.

METAR: FYWE 141000Z 06006KT CAVOK 20/M06 Q1031

Heure: 13:06 (11:06 UTC)

Prévision

Le bulletin a été fait il y a 3 heures et 6 minutes, à 08:00 UTC
Prévision valable du 14 à 09 UTC au 14 à 18 UTC
Vent kt de nord
Visibilité 10 km ou plus
pas de nuages en-dessous de 1500 mètres et pas de cumulonimbus.
Evoluant progressivement
du 14 à 10 UTC au 14 à 12 UTC
Vent 12 kt de nord-est

TAF: FYWE 140800Z 1409/1418 00000KT CAVOK BECMG 1410/1412 05012KT

Observations et prévisions météorologiques de plus de 4000 aéroports (messages METAR et TAF).

Les stations disponibles sont représentées par des disques jaunes et rouges sur la carte.

Passer la souris dessus pour voir le nom de la station.

Cliquer dessus pour voir les observations et prévisions météorologiques.

Pour changer de carte: cliquez sur les boutons verts avec une croix noire pour zoomer, sur le bouton vert avec un tiret pour effectuer un zoom arrière, ou sur les flèches vertes pour les cartes adjacentes.


METAR-TAF: